Time;durP1;ratioP1;P1;durP2;ratioP2;P2;SDS_P1;SDS_P2;PMS_P1;PMS_P2;Temp;Humidity;BMP_temperature;BMP_pressure;BME280_temperature;BME280_humidity;BME280_pressure;Samples;Min_cycle;Max_cycle;Signal;HPM_P1;HPM_P2
2023/05/26 18:05:06;;;;;;;4.37;3.83;;;22.40;82.50;;;;;;5067717;27;1377278;-80
2023/05/26 18:07:32;;;;;;;3.57;3.27;;;22.40;82.90;;;;;;5090588;28;20210;-82
2023/05/26 18:09:58;;;;;;;3.83;3.53;;;22.40;83.80;;;;;;5101843;28;20167;-79
2023/05/26 18:12:23;;;;;;;3.57;3.37;;;22.40;84.30;;;;;;5074740;28;20272;-79
2023/05/26 18:14:49;;;;;;;4.17;3.63;;;22.30;83.00;;;;;;5091709;28;20178;-79
2023/05/26 18:17:15;;;;;;;3.80;3.50;;;22.20;81.50;;;;;;5091699;28;20197;-78
2023/05/26 18:19:41;;;;;;;4.80;3.50;;;22.20;81.50;;;;;;5091134;28;20162;-79
2023/05/26 18:22:07;;;;;;;3.70;3.40;;;22.20;81.40;;;;;;5091754;28;20592;-78
2023/05/26 18:24:33;;;;;;;3.60;3.40;;;22.10;81.50;;;;;;5074529;28;20237;-80
2023/05/26 18:26:59;;;;;;;3.93;3.53;;;22.10;81.70;;;;;;5073387;28;20175;-80
2023/05/26 18:29:25;;;;;;;4.10;3.70;;;22.00;82.20;;;;;;5084800;28;20185;-79
2023/05/26 18:31:50;;;;;;;4.03;3.73;;;22.00;81.80;;;;;;5079416;28;20252;-78
2023/05/26 18:34:16;;;;;;;3.90;3.60;;;22.00;82.00;;;;;;5073181;28;20222;-79
2023/05/26 18:36:42;;;;;;;4.30;3.90;;;21.80;82.70;;;;;;5091041;28;20171;-79
2023/05/26 18:39:08;;;;;;;3.83;3.43;;;21.80;82.60;;;;;;5091011;28;20508;-80
2023/05/26 18:41:33;;;;;;;4.67;3.93;;;21.70;82.80;;;;;;5090948;28;20171;-79
2023/05/26 18:43:59;;;;;;;4.03;3.73;;;21.70;83.50;;;;;;5090446;28;20198;-79
2023/05/26 18:46:25;;;;;;;5.17;4.03;;;21.60;83.80;;;;;;5091309;28;20254;-79
2023/05/26 18:48:51;;;;;;;4.40;4.00;;;21.60;84.20;;;;;;5090964;28;20185;-79
2023/05/26 18:51:17;;;;;;;4.50;4.10;;;21.50;86.00;;;;;;5073450;28;20178;-79
2023/05/26 18:53:43;;;;;;;4.07;3.77;;;21.30;86.10;;;;;;5073583;28;20181;-80
2023/05/26 18:56:11;;;;;;;4.20;3.90;;;21.30;86.00;;;;;;5076425;28;20171;-79
2023/05/26 18:58:37;;;;;;;4.30;4.00;;;21.20;87.80;;;;;;5092343;28;20174;-82
2023/05/26 19:01:03;;;;;;;4.33;3.93;;;21.10;87.30;;;;;;5073682;28;20713;-80
2023/05/26 19:03:30;;;;;;;4.40;3.73;;;21.00;88.50;;;;;;5073234;28;20381;-80
2023/05/26 19:05:59;;;;;;;4.57;4.17;;;21.00;87.60;;;;;;5080633;28;20171;-80
2023/05/26 19:08:25;;;;;;;4.57;4.17;;;21.00;87.70;;;;;;5106241;28;20209;-81
2023/05/26 19:10:50;;;;;;;4.63;4.23;;;20.90;88.20;;;;;;5107025;28;20179;-80
2023/05/26 19:13:16;;;;;;;4.67;4.23;;;20.90;88.50;;;;;;5093709;28;20270;-80
2023/05/26 19:15:42;;;;;;;5.43;4.93;;;20.80;88.50;;;;;;5062900;28;20623;-80
2023/05/26 19:18:08;;;;;;;4.57;4.17;;;20.80;88.90;;;;;;5084405;28;20186;-79
2023/05/26 19:20:34;;;;;;;5.17;4.30;;;20.60;90.50;;;;;;5088883;28;20258;-80
2023/05/26 19:23:00;;;;;;;5.00;4.47;;;20.50;89.80;;;;;;5059684;28;20207;-78
2023/05/26 19:25:25;;;;;;;5.27;4.43;;;20.50;90.10;;;;;;5078233;28;20175;-78
2023/05/26 19:27:51;;;;;;;4.90;4.50;;;20.30;90.50;;;;;;5059606;28;20183;-78
2023/05/26 19:30:17;;;;;;;6.33;4.20;;;20.20;91.10;;;;;;5058910;28;20183;-78
2023/05/26 19:32:43;;;;;;;5.87;4.67;;;20.10;91.80;;;;;;5059462;28;20227;-81
2023/05/26 19:35:10;;;;;;;4.70;4.30;;;18.90;90.40;;;;;;5078862;28;20182;-81
2023/05/26 19:37:38;;;;;;;4.80;4.40;;;20.10;90.90;;;;;;5078893;28;20881;-79
2023/05/26 19:40:05;;;;;;;5.43;4.90;;;20.00;91.60;;;;;;5059495;28;20183;-82
2023/05/26 19:42:31;;;;;;;5.80;5.30;;;20.00;91.80;;;;;;5078369;28;20178;-79
2023/05/26 19:44:57;;;;;;;5.20;4.80;;;19.90;91.50;;;;;;5076804;28;20219;-79
2023/05/26 19:47:23;;;;;;;5.27;4.77;;;19.80;91.80;;;;;;5067887;28;20186;-79
2023/05/26 19:49:49;;;;;;;5.03;4.50;;;19.70;91.80;;;;;;5058373;28;20184;-79
2023/05/26 19:52:15;;;;;;;5.83;5.07;;;19.70;92.10;;;;;;5076251;28;20178;-80
2023/05/26 19:54:41;;;;;;;5.90;5.10;;;19.60;92.10;;;;;;5058470;28;20182;-78
2023/05/26 19:57:07;;;;;;;5.27;4.70;;;19.60;91.70;;;;;;5075897;28;20180;-78
2023/05/26 19:59:32;;;;;;;5.43;4.97;;;19.50;92.10;;;;;;5075343;28;20170;-80
2023/05/26 20:01:58;;;;;;;7.83;5.40;;;19.40;93.80;;;;;;5075623;28;20174;-80
2023/05/26 20:04:27;;;;;;;7.07;5.23;;;19.40;93.10;;;;;;5074786;28;20264;-81
2023/05/26 20:06:53;;;;;;;5.93;4.93;;;19.40;92.30;;;;;;5075346;28;20182;-81
2023/05/26 20:09:19;;;;;;;5.53;5.13;;;19.40;92.30;;;;;;5078654;28;20171;-82
2023/05/26 20:11:44;;;;;;;5.10;4.60;;;19.30;92.30;;;;;;5075862;28;20159;-79
2023/05/26 20:14:11;;;;;;;5.53;4.97;;;19.30;93.10;;;;;;5076785;28;20186;-80
2023/05/26 20:16:36;;;;;;;5.60;5.10;;;19.60;93.60;;;;;;5057861;28;20669;-79
2023/05/26 20:19:03;;;;;;;5.60;5.10;;;19.00;93.10;;;;;;5083609;28;20175;-79
2023/05/26 20:21:28;;;;;;;5.30;4.80;;;19.00;92.90;;;;;;5076990;28;20531;-79
2023/05/26 20:23:54;;;;;;;5.50;5.00;;;18.90;93.00;;;;;;5077992;28;20214;-78
2023/05/26 20:26:21;;;;;;;6.33;5.03;;;19.00;92.90;;;;;;5082174;28;20527;-78
2023/05/26 20:28:47;;;;;;;5.93;5.20;;;18.90;93.00;;;;;;5057032;28;20267;-79
2023/05/26 20:31:17;;;;;;;5.80;5.17;;;18.90;93.10;;;;;;5074721;28;20179;-78
2023/05/26 20:33:46;;;;;;;7.63;4.70;;;18.80;93.10;;;;;;5074561;28;20542;-80
2023/05/26 20:36:18;;;;;;;5.40;4.90;;;18.80;93.10;;;;;;5059664;28;20171;-81
2023/05/26 20:38:45;;;;;;;5.60;4.97;;;18.70;93.30;;;;;;5078828;28;20159;-78
2023/05/26 20:41:11;;;;;;;5.50;5.00;;;18.70;93.20;;;;;;5074613;28;20250;-79
2023/05/26 20:43:36;;;;;;;5.70;5.17;;;18.60;93.20;;;;;;5065195;28;20244;-78
2023/05/26 20:46:02;;;;;;;5.43;4.93;;;18.60;93.60;;;;;;5084662;28;20171;-79
2023/05/26 20:48:28;;;;;;;5.37;4.87;;;18.60;93.30;;;;;;5075821;28;20584;-82
2023/05/26 20:50:54;;;;;;;5.50;4.87;;;18.60;93.30;;;;;;5074531;28;20175;-80
2023/05/26 20:53:19;;;;;;;5.73;5.20;;;18.60;93.40;;;;;;5074822;28;20167;-80
2023/05/26 20:55:45;;;;;;;5.30;4.80;;;17.80;93.20;;;;;;5087116;28;20179;-81
2023/05/26 20:58:11;;;;;;;6.00;5.00;;;18.50;93.50;;;;;;5067745;28;20186;-81
2023/05/26 21:00:36;;;;;;;5.40;4.90;;;18.50;93.70;;;;;;5078013;28;20198;-79
2023/05/26 21:03:02;;;;;;;5.60;5.10;;;18.50;93.50;;;;;;5075296;28;20204;-79
2023/05/26 21:05:28;;;;;;;6.03;4.37;;;18.50;93.60;;;;;;5075108;28;20175;-82
2023/05/26 21:07:54;;;;;;;5.50;5.00;;;18.60;93.70;;;;;;5076365;28;20266;-80
2023/05/26 21:10:20;;;;;;;5.80;5.20;;;18.60;93.70;;;;;;5066468;28;20572;-78
2023/05/26 21:12:46;;;;;;;5.70;5.17;;;18.60;93.80;;;;;;5076006;28;20225;-80
2023/05/26 21:15:11;;;;;;;5.83;5.20;;;18.70;93.80;;;;;;5056082;28;20186;-79
2023/05/26 21:17:37;;;;;;;5.67;5.17;;;18.70;93.80;;;;;;5073380;28;20167;-79
2023/05/26 21:20:03;;;;;;;5.20;4.70;;;18.70;93.60;;;;;;5073680;28;20266;-78
2023/05/26 21:22:30;;;;;;;5.77;4.87;;;18.70;93.60;;;;;;5075109;28;20197;-81
2023/05/26 21:24:55;;;;;;;5.60;5.10;;;18.80;93.60;;;;;;5075283;28;20210;-79
2023/05/26 21:27:21;;;;;;;5.83;5.10;;;17.90;93.50;;;;;;5076355;28;20182;-78
2023/05/26 21:29:47;;;;;;;7.30;4.87;;;18.80;93.50;;;;;;5064213;28;20189;-79
2023/05/26 21:32:13;;;;;;;5.83;5.00;;;18.80;93.70;;;;;;5076974;28;20167;-77
2023/05/26 21:34:38;;;;;;;5.57;5.10;;;18.90;93.70;;;;;;5074514;28;20180;-78
2023/05/26 21:37:04;;;;;;;5.30;4.80;;;18.70;93.80;;;;;;5073913;28;20653;-79
2023/05/26 21:39:30;;;;;;;7.87;5.40;;;18.70;94.20;;;;;;5073326;28;20778;-78
2023/05/26 21:41:56;;;;;;;5.67;4.73;;;18.70;94.50;;;;;;5055896;28;20179;-79
2023/05/26 21:44:21;;;;;;;5.73;5.13;;;18.60;94.00;;;;;;5079410;28;20268;-77
2023/05/26 21:46:47;;;;;;;5.50;5.00;;;18.70;94.10;;;;;;5073267;28;20692;-78
2023/05/26 21:49:13;;;;;;;5.70;5.20;;;18.70;94.10;;;;;;5072877;28;20178;-79
2023/05/26 21:51:47;;;;;;;6.47;5.70;;;18.70;94.30;;;;;;5076641;28;20174;-79
2023/05/26 21:54:13;;;;;;;5.17;4.67;;;18.70;94.10;;;;;;5074321;28;20155;-77
2023/05/26 21:56:39;;;;;;;5.53;5.03;;;18.70;94.30;;;;;;5074641;28;20168;-79
2023/05/26 21:59:05;;;;;;;6.50;5.07;;;18.70;94.80;;;;;;5072579;28;20175;-77
2023/05/26 22:01:30;;;;;;;5.90;5.33;;;16.50;93.30;;;;;;5072674;28;20167;-78
2023/05/26 22:03:56;;;;;;;5.77;5.17;;;18.60;94.40;;;;;;5054802;28;20239;-80
2023/05/26 22:06:22;;;;;;;5.67;5.17;;;18.70;94.60;;;;;;5073364;28;20588;-77
2023/05/26 22:08:48;;;;;;;5.93;5.30;;;18.60;95.30;;;;;;5054851;28;20670;-78
2023/05/26 22:11:14;;;;;;;8.17;5.30;;;18.60;94.70;;;;;;5073017;28;20181;-78
2023/05/26 22:13:40;;;;;;;5.33;4.83;;;18.50;94.40;;;;;;5073566;28;20179;-80
2023/05/26 22:16:06;;;;;;;6.70;5.13;;;18.50;94.40;;;;;;5072503;28;20698;-78
2023/05/26 22:18:32;;;;;;;5.73;5.13;;;18.50;94.40;;;;;;5075748;28;20400;-78
2023/05/26 22:20:58;;;;;;;6.10;4.93;;;18.50;94.50;;;;;;5083170;28;20167;-76
2023/05/26 22:23:23;;;;;;;5.40;4.87;;;18.40;94.60;;;;;;5074961;28;20210;-79
2023/05/26 22:25:49;;;;;;;5.20;4.70;;;18.30;94.70;;;;;;5056514;28;20635;-79
2023/05/26 22:28:15;;;;;;;5.43;4.73;;;18.20;94.60;;;;;;5055536;28;20175;-80
2023/05/26 22:30:41;;;;;;;5.13;4.70;;;18.10;94.80;;;;;;5079705;28;20175;-79
2023/05/26 22:33:07;;;;;;;6.13;5.53;;;18.10;94.90;;;;;;5065326;28;20223;-80
2023/05/26 22:35:32;;;;;;;6.10;5.50;;;18.00;94.90;;;;;;5055131;28;20275;-79
2023/05/26 22:37:58;;;;;;;5.23;4.83;;;17.90;95.30;;;;;;5054352;28;20189;-80
2023/05/26 22:40:24;;;;;;;5.37;4.90;;;17.90;95.30;;;;;;5054466;28;20177;-79
2023/05/26 22:42:50;;;;;;;6.30;5.20;;;17.70;95.60;;;;;;5072215;28;20176;-78
2023/05/26 22:45:16;;;;;;;5.10;4.63;;;17.80;96.00;;;;;;5072087;28;20180;-78
2023/05/26 22:47:42;;;;;;;5.00;4.53;;;17.60;95.70;;;;;;5072080;28;20177;-80
2023/05/26 22:50:08;;;;;;;5.57;5.00;;;17.60;95.60;;;;;;5072745;28;20214;-78
2023/05/26 22:52:34;;;;;;;4.93;4.53;;;17.60;95.50;;;;;;5058040;28;20205;-77
2023/05/26 22:55:00;;;;;;;5.67;5.17;;;17.60;95.80;;;;;;5075745;28;20210;-79
2023/05/26 22:57:25;;;;;;;5.30;4.67;;;17.60;95.90;;;;;;5075660;28;20261;-77
2023/05/26 22:59:51;;;;;;;5.60;5.10;;;17.70;96.30;;;;;;5075782;28;20175;-79
2023/05/26 23:02:17;;;;;;;5.90;4.87;;;17.50;96.00;;;;;;5076677;28;20193;-79
2023/05/26 23:04:42;;;;;;;5.73;5.23;;;17.50;96.00;;;;;;5084584;28;20246;-79
2023/05/26 23:07:08;;;;;;;5.60;5.10;;;17.40;95.90;;;;;;5087334;28;20185;-79
2023/05/26 23:09:34;;;;;;;5.87;5.10;;;17.40;96.10;;;;;;5087589;28;20183;-78
2023/05/26 23:12:00;;;;;;;5.63;5.13;;;17.30;96.30;;;;;;5068513;28;20175;-78
2023/05/26 23:14:26;;;;;;;6.03;5.43;;;17.20;96.30;;;;;;5092868;28;20175;-79
2023/05/26 23:16:51;;;;;;;5.80;5.20;;;17.20;96.60;;;;;;5085531;28;20186;-77
2023/05/26 23:19:18;;;;;;;5.07;4.67;;;17.10;96.90;;;;;;5079561;28;20185;-80
2023/05/26 23:21:43;;;;;;;5.20;4.77;;;17.20;97.00;;;;;;5057630;28;20334;-79
2023/05/26 23:24:09;;;;;;;6.53;5.37;;;17.00;96.80;;;;;;5077339;28;20675;-78
2023/05/26 23:26:35;;;;;;;5.60;5.10;;;17.00;96.80;;;;;;5066703;28;20185;-80
2023/05/26 23:29:00;;;;;;;5.13;4.70;;;17.10;97.00;;;;;;5080546;28;20175;-78
2023/05/26 23:31:26;;;;;;;6.13;5.27;;;17.00;97.70;;;;;;5057850;28;20197;-77
2023/05/26 23:33:52;;;;;;;5.70;5.20;;;16.90;97.60;;;;;;5075440;28;20205;-78
2023/05/26 23:36:18;;;;;;;6.03;5.43;;;16.90;97.90;;;;;;5075010;28;20639;-77
2023/05/26 23:38:44;;;;;;;7.10;5.50;;;16.80;98.60;;;;;;5074875;28;20218;-77
2023/05/26 23:41:10;;;;;;;6.10;5.50;;;16.80;98.50;;;;;;5075044;28;20659;-76
2023/05/26 23:43:36;;;;;;;5.50;5.00;;;16.80;98.70;;;;;;5051849;28;20208;-78
2023/05/26 23:46:02;;;;;;;6.47;5.50;;;16.80;98.50;;;;;;5072770;28;20175;-77
2023/05/26 23:48:27;;;;;;;6.10;5.50;;;16.80;98.60;;;;;;5075546;28;20184;-79
2023/05/26 23:50:53;;;;;;;7.03;6.33;;;17.90;98.90;;;;;;5056713;28;20210;-78
2023/05/26 23:53:19;;;;;;;7.50;5.73;;;16.80;98.80;;;;;;5080048;28;20207;-79
2023/05/26 23:55:45;;;;;;;7.17;5.43;;;16.50;98.50;;;;;;5081368;28;20182;-78
2023/05/26 23:58:11;;;;;;;6.40;5.80;;;16.70;99.00;;;;;;5088115;28;20181;-79
